Time Latitude Longitude Accuracy (66% radius in meters) Altitude (meters) Speed (km/hour) Bearing (degrees) Battery (%) GPS flag
09:48:04 60.253352 29.795942 5 103.40000152588 3.5355339050293 4.8000001907349 1 delete
09:47:54 60.253202 29.796007 7 96.699996948242 0 0 1 delete
09:47:30 60.253226 29.796231 7 102.40000152588 0 0 1 delete
09:46:56 60.253221 29.796433 7 100.19999694824 5.75 270.5 1 delete
09:46:54 60.253229 29.796644 8 101.5 4.7762432098389 286.10000610352 1 delete
09:46:51 60.253188 29.796876 9 104.40000152588 4.0311288833618 274.60000610352 1 delete
09:46:47 60.253156 29.797147 9 106.80000305176 4.5276927947998 277.5 1 delete
09:46:44 60.253107 29.797411 7 105.30000305176 5.5 237 1 delete
09:46:42 60.253165 29.797609 6 105.30000305176 5.75 229.89999389648 1 delete
09:46:40 60.253216 29.797770 6 106.30000305176 6.020797252655 222.19999694824 1 delete
09:46:38 60.253253 29.797938 7 109.09999847412 5.25 245.60000610352 1 delete
09:46:36 60.253287 29.798142 8 109.69999694824 5.5226802825928 245.10000610352 1 delete
09:46:34 60.253331 29.798367 9 111.19999694824 5 241.5 1 delete
09:46:32 60.253374 29.798600 9 112.30000305176 4 244.39999389648 1 delete
09:46:29 60.253418 29.798815 9 112.19999694824 4.0311288833618 255.80000305176 1 delete
09:46:26 60.253429 29.799057 7 112.5 4.7762432098389 281.60000610352 1 delete
09:46:24 60.253412 29.799242 8 112.59999847412 6.0827627182007 294.89999389648 1 delete
09:46:22 60.253361 29.799488 8 116.69999694824 5 288.29998779297 1 delete
09:46:20 60.253307 29.799694 10 117.19999694824 2.4622144699097 259.79998779297 1 delete
09:46:15 60.253225 29.799834 10 107.80000305176 3.5355339050293 292.29998779297 1 delete
09:46:12 60.253184 29.800018 10 106.90000152588 5 307.29998779297 1 delete
09:46:10 60.253101 29.800161 9 107.69999694824 4.75 303.89999389648 1 delete
09:46:07 60.253020 29.800373 10 108.69999694824 5.7716979980469 307.20001220703 1 delete
09:46:05 60.252920 29.800497 9 108.19999694824 5.0990195274353 294.5 1 delete
09:45:59 60.252785 29.800909 6 110.09999847412 6.2699680328369 327.79998779297 1 delete
09:45:56 60.252693 29.801050 7 109.90000152588 5.2737555503845 309.79998779297 1 delete
09:45:55 60.252632 29.801185 7 110.09999847412 4.3660621643066 296.10000610352 1 delete
09:45:53 60.252565 29.801327 7 108.59999847412 5.25 322.39999389648 1 delete
09:45:51 60.252492 29.801470 8 107.69999694824 6.576473236084 338.89999389648 1 delete
09:45:49 60.252416 29.801605 11 108.90000152588 6.020797252655 324.79998779297 1 delete
09:45:43 60.252094 29.802026 10 110 5 312.39999389648 1 delete
09:45:41 60.252025 29.802159 9 111.19999694824 4.75 305.79998779297 1 delete
09:45:39 60.251954 29.802299 10 111.19999694824 4.8541221618652 315.5 1 delete
09:45:33 60.251822 29.802615 10 108.90000152588 4.25 300.10000610352 1 delete
09:45:31 60.251769 29.802828 7 109.5 5.5226802825928 313.60000610352 1 delete
09:45:28 60.251665 29.803022 6 107.5 5.25 310.79998779297 1 delete
09:45:26 60.251598 29.803154 5 108.40000152588 5.5 307.79998779297 1 delete
09:45:23 60.251510 29.803352 5 109.90000152588 5.0249376296997 301.10000610352 1 delete
09:45:21 60.251423 29.803513 5 110.59999847412 5.2737555503845 307.20001220703 1 delete
09:45:19 60.251367 29.803673 5 112 6 307.39999389648 1 delete
09:45:17 60.251306 29.803847 5 111.90000152588 5.75 320.10000610352 1 delete
09:45:15 60.251213 29.803985 5 114.19999694824 6.2699680328369 274.89999389648 1 delete
09:45:13 60.251209 29.804238 5 116 5.5 231.60000610352 1 delete
09:45:11 60.251272 29.804418 6 115.19999694824 5.5 223.89999389648 1 delete
09:45:09 60.251359 29.804620 8 115.69999694824 4.2793107032776 223.60000610352 1 delete
09:45:07 60.251436 29.804726 8 115.40000152588 4.2793107032776 242.30000305176 1 delete
09:45:04 60.251495 29.804908 6 114 4.0311288833618 268 1 delete
09:45:01 60.251495 29.805157 5 113.40000152588 4.7762432098389 294.60000610352 1 delete
09:44:58 60.251484 29.805399 6 116.69999694824 3.4003677368164 242.89999389648 1 delete
09:44:55 60.251545 29.805641 6 115.19999694824 4.6097722053528 242.60000610352 1 delete